DTTALICJ

Guest
Details From DTTA - CARTHAGE
To LICJ - PALERMO
Flight Number -
Tags generated
Created
Modified
Stats Distance 158 nm / 293 km
Max Altitude 11,300 ft / 3,444 m
Waypoints 3
Social Downloads 5
Likes 0
Share VATSIM

Download

Looking for another format? Having issues loading an existing format? Contact us
Advertisement - Login to hide

Notes

Basic altitude profile: - Ascent Rate: 2000ft/min - Ascent Speed: 250kts - Cruise Altitude: 20000ft - Cruise Speed: 420kts - Descent Rate: 1500ft/min - Descent Speed: 250kts Options: - Use NATs: yes - Use PACOTS: yes - Use low airways: yes - Use high airways: yes

Route

DTTA LOPKO LICJ

ID Type Via Altitude Latitude Longitude Leg Dist Tot Dist Heading (true) Name
O DTTA APT - 0 ft / 0 m 36.85127˚ 10.23003˚ - 0 nm - CARTHAGE
LOPKO FIX - 11,300 ft / 3,444 m 37.66611˚ 12.18028˚ 105 nm 105 nm 62° / 63° -
O LICJ APT - 0 ft / 0 m 38.17738˚ 13.09704˚ 53 nm 158 nm 54° / 55° PALERMO

Altitude Profile

Advertisement - Login to hide

DTTA

Details ICAO DTTA (TUN)
Name CARTHAGE
Region Tunisia
Timezone Africa/Tunis (UTC+1.0)
Stats Elevation 22 ft / 7 m (AMSL)
Location 36.851267° 10.230027°
Runways 2
Magnetic Variation 2.403° E

METAR

DTTA 140830Z 20009KT 160V220 9999 FEW026 11/06 Q1024 NOSIG

Decode

TAF

TAF DTTA 140500Z 1406/1506 22012KT 9999 SCT023= TAF DTMB 140500Z 1406/1506 22010KT 9999 FEW020

Decode

Departure Runways

ID Width Length Bearing (true) Bearing (mag) Surface Threshold Offset Overrun Length
01 148 ft / 45 m 10,502 ft / 3,201 m 12.29° 9.89° Asphalt 0 ft / 0 m 197 ft / 60 m
11 148 ft / 45 m 9,345 ft / 2,848 m 112.55° 110.15° Asphalt 0 ft / 0 m 643 ft / 196 m
19 148 ft / 45 m 10,502 ft / 3,201 m 192.29° 189.89° Asphalt 0 ft / 0 m 197 ft / 60 m
29 148 ft / 45 m 9,345 ft / 2,848 m 292.57° 290.17° Asphalt 657 ft / 200 m 197 ft / 60 m

LICJ

Details ICAO LICJ (PMO)
Name PALERMO
Region Italy
Timezone Europe/Rome (UTC+1.0)
Stats Elevation 65 ft / 20 m (AMSL)
Location 38.177377° 13.097035°
Runways 2
Magnetic Variation 2.950° E

METAR

LICJ 140820Z 20010KT 9999 FEW035 14/06 Q1022

Decode

TAF

TAF LICJ 140500Z 1406/1506 25016KT 9999 SCT025

Decode

Destination Runways

ID Width Length Bearing (true) Bearing (mag) Surface Threshold Offset Overrun Length
02 148 ft / 45 m 6,813 ft / 2,077 m 23.81° 20.86° Asphalt 10 ft / 3 m 0 ft / 0 m
07 197 ft / 60 m 10,685 ft / 3,257 m 66.82° 63.87° Asphalt 404 ft / 123 m 0 ft / 0 m
20 148 ft / 45 m 6,813 ft / 2,077 m 203.81° 200.86° Asphalt 10 ft / 3 m 0 ft / 0 m
25 197 ft / 60 m 10,685 ft / 3,257 m 246.85° 243.90° Asphalt 679 ft / 207 m 0 ft / 0 m

Approach Navaids

Runway Type Ident Frequency Range Bearing (true) Bearing (mag) Slope Elevation
20 Localiser ITO 110.55 MHz 18 nm / 33 km 203.81° 200.86° - 65 ft / 20 m (AMSL)
20 Glidescope ITO 110.55 MHz 10 nm / 19 km 203.81° 200.86° 3.00° 65 ft / 20 m (AMSL)
20 DME ITO 110.55 MHz 18 nm / 33 km - - - 38 ft / 12 m (AMSL)
25 Localiser RAI 109.50 MHz 18 nm / 33 km 246.82° 243.87° - 65 ft / 20 m (AMSL)
25 Glidescope RAI 109.50 MHz 10 nm / 19 km 246.84° 243.89° 3.00° 65 ft / 20 m (AMSL)
25 DME RAI 109.50 MHz 18 nm / 33 km - - - 65 ft / 20 m (AMSL)

Popular Alternatives